Time,TemperatureF,DewpointF,PressureIn,WindDirection,WindDirectionDegrees,WindSpeedMPH,WindSpeedGustMPH,Humidity,HourlyPrecipIn,Conditions,Clouds,dailyrainin,SoftwareType,DateUTC
2013-03-21 00:02:00,39.0,15.0,-100.00,ESE,105,2.0,5.0,37,-99.99,,,0.00,,2013-03-21 06:02:00,
2013-03-21 00:12:00,36.0,15.0,-100.00,WNW,285,3.0,4.0,42,-99.99,,,0.00,,2013-03-21 06:12:00,
2013-03-21 00:22:00,36.0,15.0,-100.00,WNW,285,3.0,4.0,42,-99.99,,,0.00,,2013-03-21 06:22:00,
2013-03-21 00:32:00,36.0,15.0,-100.00,WNW,285,3.0,4.0,42,-99.99,,,0.00,,2013-03-21 06:32:00,
2013-03-21 00:42:00,36.0,15.0,-100.00,WNW,285,3.0,4.0,42,-99.99,,,0.00,,2013-03-21 06:42:00,
2013-03-21 00:52:00,35.0,17.0,-100.00,South,175,4.0,6.0,47,-99.99,,,0.00,,2013-03-21 06:52:00,
2013-03-21 01:02:00,35.0,17.0,-100.00,South,175,4.0,6.0,47,-99.99,,,0.00,,2013-03-21 07:02:00,
2013-03-21 01:12:00,34.0,17.0,-100.00,ESE,115,4.0,5.0,50,-99.99,,,0.00,,2013-03-21 07:12:00,
2013-03-21 01:22:00,34.0,17.0,-100.00,ESE,115,4.0,5.0,50,-99.99,,,0.00,,2013-03-21 07:22:00,
2013-03-21 01:32:00,34.0,17.0,-100.00,ESE,115,4.0,5.0,50,-99.99,,,0.00,,2013-03-21 07:32:00,
2013-03-21 01:42:00,34.0,17.0,-100.00,ESE,115,4.0,5.0,50,-99.99,,,0.00,,2013-03-21 07:42:00,
2013-03-21 01:52:00,34.0,18.0,-100.00,East,85,5.0,6.0,51,-99.99,,,0.00,,2013-03-21 07:52:00,
2013-03-21 02:02:00,34.0,18.0,-100.00,East,85,5.0,6.0,51,-99.99,,,0.00,,2013-03-21 08:02:00,
2013-03-21 02:12:00,36.0,19.0,-100.00,SE,135,6.0,9.0,50,-99.99,,,0.00,,2013-03-21 08:12:00,
2013-03-21 02:22:00,36.0,19.0,-100.00,SE,135,6.0,9.0,50,-99.99,,,0.00,,2013-03-21 08:22:00,
2013-03-21 02:33:00,36.0,19.0,-100.00,SE,135,6.0,9.0,50,-99.99,,,0.00,,2013-03-21 08:33:00,
2013-03-21 02:42:00,36.0,19.0,-100.00,SE,135,6.0,9.0,50,-99.99,,,0.00,,2013-03-21 08:42:00,
2013-03-21 02:52:00,37.0,20.0,-100.00,NE,40,8.0,14.0,50,-99.99,,,0.00,,2013-03-21 08:52:00,
2013-03-21 03:02:00,37.0,20.0,-100.00,NE,40,8.0,14.0,50,-99.99,,,0.00,,2013-03-21 09:02:00,
2013-03-21 03:11:00,39.0,22.0,-100.00,SSE,155,3.0,13.0,50,-99.99,,,0.00,,2013-03-21 09:11:00,
2013-03-21 03:21:00,39.0,22.0,-100.00,SSE,155,3.0,13.0,50,-99.99,,,0.00,,2013-03-21 09:21:00,
2013-03-21 03:33:00,39.0,22.0,-100.00,SSE,155,3.0,13.0,50,-99.99,,,0.00,,2013-03-21 09:33:00,
2013-03-21 03:43:00,39.0,22.0,-100.00,SSE,155,3.0,13.0,50,-99.99,,,0.00,,2013-03-21 09:43:00,
2013-03-21 03:53:00,42.0,23.0,-100.00,WNW,290,3.0,8.0,47,-99.99,,,0.00,,2013-03-21 09:53:00,
2013-03-21 04:02:00,42.0,23.0,-100.00,WNW,290,3.0,8.0,47,-99.99,,,0.00,,2013-03-21 10:02:00,
2013-03-21 04:12:00,43.0,22.0,-100.00,SW,235,12.0,22.0,42,-99.99,,,0.00,,2013-03-21 10:12:00,
2013-03-21 04:22:00,43.0,22.0,-100.00,SW,235,12.0,22.0,42,-99.99,,,0.00,,2013-03-21 10:22:00,
2013-03-21 04:32:00,43.0,22.0,-100.00,SW,235,12.0,22.0,42,-99.99,,,0.00,,2013-03-21 10:32:00,
2013-03-21 04:42:00,43.0,22.0,-100.00,SW,235,12.0,22.0,42,-99.99,,,0.00,,2013-03-21 10:42:00,
2013-03-21 04:52:00,42.0,22.0,-100.00,WNW,285,9.0,17.0,43,-99.99,,,0.00,,2013-03-21 10:52:00,
2013-03-21 05:02:00,42.0,22.0,-100.00,WNW,285,9.0,17.0,43,-99.99,,,0.00,,2013-03-21 11:02:00,
2013-03-21 05:12:00,42.0,22.0,-100.00,West,280,6.0,12.0,44,-99.99,,,0.00,,2013-03-21 11:12:00,
2013-03-21 05:22:00,42.0,22.0,-100.00,West,280,6.0,12.0,44,-99.99,,,0.00,,2013-03-21 11:22:00,
2013-03-21 05:33:00,42.0,22.0,-100.00,West,280,6.0,12.0,44,-99.99,,,0.00,,2013-03-21 11:33:00,
2013-03-21 05:42:00,42.0,22.0,-100.00,West,280,6.0,12.0,44,-99.99,,,0.00,,2013-03-21 11:42:00,
2013-03-21 06:12:00,38.0,28.0,-100.00,NNW,330,18.0,28.0,68,-99.99,,,0.00,,2013-03-21 12:12:00,
2013-03-21 06:22:00,38.0,28.0,-100.00,NNW,330,18.0,28.0,68,-99.99,,,0.00,,2013-03-21 12:22:00,
2013-03-21 06:32:00,38.0,28.0,-100.00,NNW,330,18.0,28.0,68,-99.99,,,0.00,,2013-03-21 12:32:00,
2013-03-21 06:42:00,38.0,28.0,-100.00,NNW,330,18.0,28.0,68,-99.99,,,0.00,,2013-03-21 12:42:00,
2013-03-21 06:52:00,36.0,30.0,-100.00,NNW,335,6.0,13.0,77,-99.99,,,0.00,,2013-03-21 12:52:00,
2013-03-21 07:02:00,36.0,30.0,-100.00,NNW,335,6.0,13.0,77,-99.99,,,0.00,,2013-03-21 13:02:00,
2013-03-21 07:12:00,36.0,30.0,-100.00,ESE,105,1.0,6.0,78,-99.99,,,0.00,,2013-03-21 13:12:00,
2013-03-21 07:22:00,36.0,30.0,-100.00,ESE,105,1.0,6.0,78,-99.99,,,0.00,,2013-03-21 13:22:00,
2013-03-21 07:32:00,36.0,30.0,-100.00,ESE,105,1.0,6.0,78,-99.99,,,0.00,,2013-03-21 13:32:00,
2013-03-21 07:42:00,36.0,30.0,-100.00,ESE,105,1.0,6.0,78,-99.99,,,0.00,,2013-03-21 13:42:00,
2013-03-21 07:52:00,39.0,27.0,-100.00,NNW,340,6.0,11.0,63,-99.99,,,0.00,,2013-03-21 13:52:00,
2013-03-21 08:02:00,39.0,27.0,-100.00,NNW,340,6.0,11.0,63,-99.99,,,0.00,,2013-03-21 14:02:00,
2013-03-21 08:12:00,37.0,29.0,-100.00,North,0,13.0,24.0,72,-99.99,,,0.00,,2013-03-21 14:12:00,
2013-03-21 08:21:00,37.0,29.0,-100.00,North,0,13.0,24.0,72,-99.99,,,0.00,,2013-03-21 14:21:00,
2013-03-21 08:32:00,37.0,29.0,-100.00,North,0,13.0,24.0,72,-99.99,,,0.00,,2013-03-21 14:32:00,
2013-03-21 08:42:00,37.0,29.0,-100.00,North,0,13.0,24.0,72,-99.99,,,0.00,,2013-03-21 14:42:00,
2013-03-21 08:52:00,37.0,31.0,-100.00,East,80,6.0,12.0,78,-99.99,,,0.00,,2013-03-21 14:52:00,
2013-03-21 09:03:00,37.0,31.0,-100.00,East,80,6.0,12.0,78,-99.99,,,0.00,,2013-03-21 15:03:00,
2013-03-21 09:12:00,37.0,32.0,-100.00,WSW,255,1.0,6.0,81,-99.99,,,0.00,,2013-03-21 15:12:00,
2013-03-21 09:22:00,37.0,32.0,-100.00,WSW,255,1.0,6.0,81,-99.99,,,0.00,,2013-03-21 15:22:00,
2013-03-21 09:32:00,37.0,32.0,-100.00,WSW,255,1.0,6.0,81,-99.99,,,0.00,,2013-03-21 15:32:00,
2013-03-21 09:42:00,37.0,32.0,-100.00,WSW,255,1.0,6.0,81,-99.99,,,0.00,,2013-03-21 15:42:00,
2013-03-21 09:52:00,37.0,32.0,-100.00,South,180,0.0,2.0,82,-99.99,,,0.00,,2013-03-21 15:52:00,
2013-03-21 10:03:00,37.0,32.0,-100.00,South,180,0.0,2.0,82,-99.99,,,0.00,,2013-03-21 16:03:00,
2013-03-21 10:12:00,38.0,31.0,-100.00,South,180,1.0,4.0,76,-99.99,,,0.00,,2013-03-21 16:12:00,
2013-03-21 10:22:00,38.0,31.0,-100.00,South,180,1.0,4.0,76,-99.99,,,0.00,,2013-03-21 16:22:00,
2013-03-21 10:33:00,38.0,31.0,-100.00,South,180,1.0,4.0,76,-99.99,,,0.00,,2013-03-21 16:33:00,
2013-03-21 10:42:00,38.0,31.0,-100.00,South,180,1.0,4.0,76,-99.99,,,0.00,,2013-03-21 16:42:00,
2013-03-21 10:52:00,40.0,26.0,-100.00,West,260,7.0,13.0,58,-99.99,,,0.00,,2013-03-21 16:52:00,
2013-03-21 11:02:00,40.0,26.0,-100.00,West,260,7.0,13.0,58,-99.99,,,0.00,,2013-03-21 17:02:00,
2013-03-21 11:12:00,43.0,16.0,-100.00,NNW,345,19.0,29.0,32,-99.99,,,0.00,,2013-03-21 17:12:00,
2013-03-21 11:23:00,43.0,16.0,-100.00,NNW,345,19.0,29.0,32,-99.99,,,0.00,,2013-03-21 17:23:00,
2013-03-21 11:32:00,43.0,16.0,-100.00,NNW,345,19.0,29.0,32,-99.99,,,0.00,,2013-03-21 17:32:00,
2013-03-21 11:42:00,43.0,16.0,-100.00,NNW,345,19.0,29.0,32,-99.99,,,0.00,,2013-03-21 17:42:00,
2013-03-21 11:52:00,43.0,12.0,-100.00,NNW,340,21.0,29.0,27,-99.99,,,0.00,,2013-03-21 17:52:00,
2013-03-21 12:02:00,43.0,12.0,-100.00,NNW,340,21.0,29.0,27,-99.99,,,0.00,,2013-03-21 18:02:00,
2013-03-21 12:12:00,43.0,11.0,-100.00,NW,325,12.0,29.0,26,-99.99,,,0.00,,2013-03-21 18:12:00,
2013-03-21 12:22:00,43.0,11.0,-100.00,NW,325,12.0,29.0,26,-99.99,,,0.00,,2013-03-21 18:22:00,
2013-03-21 12:32:00,43.0,11.0,-100.00,NW,325,12.0,29.0,26,-99.99,,,0.00,,2013-03-21 18:32:00,
2013-03-21 12:42:00,43.0,11.0,-100.00,NW,325,12.0,29.0,26,-99.99,,,0.00,,2013-03-21 18:42:00,
2013-03-21 12:52:00,43.0,10.0,-100.00,NNW,345,12.0,30.0,25,-99.99,,,0.00,,2013-03-21 18:52:00,
2013-03-21 13:02:00,43.0,10.0,-100.00,NNW,345,12.0,30.0,25,-99.99,,,0.00,,2013-03-21 19:02:00,
2013-03-21 13:12:00,44.0,9.0,-100.00,NNW,345,10.0,21.0,24,-99.99,,,0.00,,2013-03-21 19:12:00,
2013-03-21 13:22:00,44.0,9.0,-100.00,NNW,345,10.0,21.0,24,-99.99,,,0.00,,2013-03-21 19:22:00,
2013-03-21 13:32:00,44.0,9.0,-100.00,NNW,345,10.0,21.0,24,-99.99,,,0.00,,2013-03-21 19:32:00,
2013-03-21 13:42:00,44.0,9.0,-100.00,NNW,345,10.0,21.0,24,-99.99,,,0.00,,2013-03-21 19:42:00,
2013-03-21 13:52:00,44.0,10.0,-100.00,North,350,19.0,24.0,24,-99.99,,,0.00,,2013-03-21 19:52:00,
2013-03-21 14:02:00,44.0,10.0,-100.00,North,350,19.0,24.0,24,-99.99,,,0.00,,2013-03-21 20:02:00,
2013-03-21 14:12:00,46.0,10.0,-100.00,North,0,14.0,21.0,23,-99.99,,,0.00,,2013-03-21 20:12:00,
2013-03-21 14:22:00,46.0,10.0,-100.00,North,0,14.0,21.0,23,-99.99,,,0.00,,2013-03-21 20:22:00,
2013-03-21 14:33:00,46.0,10.0,-100.00,North,0,14.0,21.0,23,-99.99,,,0.00,,2013-03-21 20:33:00,
2013-03-21 14:42:00,46.0,10.0,-100.00,North,0,14.0,21.0,23,-99.99,,,0.00,,2013-03-21 20:42:00,
2013-03-21 14:52:00,47.0,10.0,-100.00,WNW,285,4.0,16.0,22,-99.99,,,0.00,,2013-03-21 20:52:00,
2013-03-21 15:02:00,47.0,10.0,-100.00,WNW,285,4.0,16.0,22,-99.99,,,0.00,,2013-03-21 21:02:00,
2013-03-21 15:12:00,46.0,9.0,-100.00,North,0,9.0,17.0,22,-99.99,,,0.00,,2013-03-21 21:12:00,
2013-03-21 15:22:00,46.0,9.0,-100.00,North,0,9.0,17.0,22,-99.99,,,0.00,,2013-03-21 21:22:00,
2013-03-21 15:32:00,46.0,9.0,-100.00,North,0,9.0,17.0,22,-99.99,,,0.00,,2013-03-21 21:32:00,
2013-03-21 15:43:00,46.0,9.0,-100.00,North,0,9.0,17.0,22,-99.99,,,0.00,,2013-03-21 21:43:00,
2013-03-21 15:52:00,47.0,9.0,-100.00,North,355,17.0,25.0,21,-99.99,,,0.00,,2013-03-21 21:52:00,
2013-03-21 16:02:00,47.0,9.0,-100.00,North,355,17.0,25.0,21,-99.99,,,0.00,,2013-03-21 22:02:00,
2013-03-21 16:12:00,48.0,8.0,-100.00,NW,315,12.0,27.0,19,-99.99,,,0.00,,2013-03-21 22:12:00,
2013-03-21 16:23:00,48.0,8.0,-100.00,NW,315,12.0,27.0,19,-99.99,,,0.00,,2013-03-21 22:23:00,
2013-03-21 16:33:00,48.0,8.0,-100.00,NW,315,12.0,27.0,19,-99.99,,,0.00,,2013-03-21 22:33:00,
2013-03-21 16:42:00,48.0,8.0,-100.00,NW,315,12.0,27.0,19,-99.99,,,0.00,,2013-03-21 22:42:00,
2013-03-21 16:52:00,47.0,7.0,-100.00,NNW,340,15.0,21.0,19,-99.99,,,0.00,,2013-03-21 22:52:00,
2013-03-21 17:02:00,47.0,7.0,-100.00,NNW,340,15.0,21.0,19,-99.99,,,0.00,,2013-03-21 23:02:00,
2013-03-21 17:12:00,47.0,7.0,-100.00,North,355,19.0,26.0,19,-99.99,,,0.00,,2013-03-21 23:12:00,
2013-03-21 17:22:00,47.0,7.0,-100.00,North,355,19.0,26.0,19,-99.99,,,0.00,,2013-03-21 23:22:00,
2013-03-21 17:32:00,47.0,7.0,-100.00,North,355,19.0,26.0,19,-99.99,,,0.00,,2013-03-21 23:32:00,
2013-03-21 17:42:00,47.0,7.0,-100.00,North,355,19.0,26.0,19,-99.99,,,0.00,,2013-03-21 23:42:00,
2013-03-21 17:52:00,47.0,7.0,-100.00,NW,325,14.0,19.0,19,-99.99,,,0.00,,2013-03-21 23:52:00,
2013-03-21 18:02:00,47.0,7.0,-100.00,NW,325,14.0,19.0,19,-99.99,,,0.00,,2013-03-22 00:02:00,
2013-03-21 18:12:00,48.0,7.0,-100.00,NNW,335,12.0,34.0,19,-99.99,,,0.00,,2013-03-22 00:12:00,
2013-03-21 18:22:00,48.0,7.0,-100.00,NNW,335,12.0,34.0,19,-99.99,,,0.00,,2013-03-22 00:22:00,
2013-03-21 18:31:00,48.0,7.0,-100.00,NNW,335,12.0,34.0,19,-99.99,,,0.00,,2013-03-22 00:31:00,
2013-03-21 18:42:00,48.0,7.0,-100.00,NNW,335,12.0,34.0,19,-99.99,,,0.00,,2013-03-22 00:42:00,
2013-03-21 18:52:00,46.0,5.0,-100.00,North,350,19.0,28.0,18,-99.99,,,0.00,,2013-03-22 00:52:00,
2013-03-21 19:02:00,46.0,5.0,-100.00,North,350,19.0,28.0,18,-99.99,,,0.00,,2013-03-22 01:02:00,
2013-03-21 19:12:00,45.0,4.0,-100.00,NNW,340,17.0,24.0,18,-99.99,,,0.00,,2013-03-22 01:12:00,
2013-03-21 19:22:00,45.0,4.0,-100.00,NNW,340,17.0,24.0,18,-99.99,,,0.00,,2013-03-22 01:22:00,
2013-03-21 19:32:00,45.0,4.0,-100.00,NNW,340,17.0,24.0,18,-99.99,,,0.00,,2013-03-22 01:32:00,
2013-03-21 19:42:00,45.0,4.0,-100.00,NNW,340,17.0,24.0,18,-99.99,,,0.00,,2013-03-22 01:42:00,
2013-03-21 19:52:00,43.0,3.0,-100.00,North,350,9.0,22.0,18,-99.99,,,0.00,,2013-03-22 01:52:00,
2013-03-21 20:02:00,43.0,3.0,-100.00,North,350,9.0,22.0,18,-99.99,,,0.00,,2013-03-22 02:02:00,
2013-03-21 20:12:00,41.0,2.0,-100.00,NNW,340,8.0,22.0,19,-99.99,,,0.00,,2013-03-22 02:12:00,
2013-03-21 20:22:00,41.0,2.0,-100.00,NNW,340,8.0,22.0,19,-99.99,,,0.00,,2013-03-22 02:22:00,
2013-03-21 20:32:00,41.0,2.0,-100.00,NNW,340,8.0,22.0,19,-99.99,,,0.00,,2013-03-22 02:32:00,
2013-03-21 20:52:00,40.0,2.0,-100.00,NW,305,11.0,23.0,20,-99.99,,,0.00,,2013-03-22 02:52:00,
2013-03-21 21:02:00,40.0,2.0,-100.00,NW,305,11.0,23.0,20,-99.99,,,0.00,,2013-03-22 03:02:00,
2013-03-21 21:12:00,38.0,2.0,-100.00,NW,320,9.0,21.0,21,-99.99,,,0.00,,2013-03-22 03:12:00,
2013-03-21 21:22:00,38.0,2.0,-100.00,NW,320,9.0,21.0,21,-99.99,,,0.00,,2013-03-22 03:22:00,
2013-03-21 21:33:00,38.0,2.0,-100.00,NW,320,9.0,21.0,21,-99.99,,,0.00,,2013-03-22 03:33:00,
2013-03-21 21:42:00,38.0,2.0,-100.00,NW,320,9.0,21.0,21,-99.99,,,0.00,,2013-03-22 03:42:00,
2013-03-21 21:52:00,37.0,2.0,-100.00,NW,305,8.0,16.0,23,-99.99,,,0.00,,2013-03-22 03:52:00,
2013-03-21 22:03:00,37.0,2.0,-100.00,NW,305,8.0,16.0,23,-99.99,,,0.00,,2013-03-22 04:03:00,
2013-03-21 22:12:00,36.0,3.0,-100.00,NNW,345,13.0,20.0,24,-99.99,,,0.00,,2013-03-22 04:12:00,
2013-03-21 22:22:00,36.0,3.0,-100.00,NNW,345,13.0,20.0,24,-99.99,,,0.00,,2013-03-22 04:22:00,
2013-03-21 22:32:00,36.0,3.0,-100.00,NNW,345,13.0,20.0,24,-99.99,,,0.00,,2013-03-22 04:32:00,
2013-03-21 22:42:00,36.0,3.0,-100.00,NNW,345,13.0,20.0,24,-99.99,,,0.00,,2013-03-22 04:42:00,
2013-03-21 22:52:00,35.0,3.0,-100.00,NW,325,12.0,22.0,25,-99.99,,,0.00,,2013-03-22 04:52:00,
2013-03-21 23:02:00,35.0,3.0,-100.00,NW,325,12.0,22.0,25,-99.99,,,0.00,,2013-03-22 05:02:00,
2013-03-21 23:12:00,35.0,4.0,-100.00,NW,325,8.0,19.0,26,-99.99,,,0.00,,2013-03-22 05:12:00,
2013-03-21 23:22:00,35.0,4.0,-100.00,NW,325,8.0,19.0,26,-99.99,,,0.00,,2013-03-22 05:22:00,
2013-03-21 23:32:00,35.0,4.0,-100.00,NW,325,8.0,19.0,26,-99.99,,,0.00,,2013-03-22 05:32:00,
2013-03-21 23:42:00,35.0,4.0,-100.00,NW,325,8.0,19.0,26,-99.99,,,0.00,,2013-03-22 05:42:00,